Time;durP1;ratioP1;P1;durP2;ratioP2;P2;SDS_P1;SDS_P2;PMS_P1;PMS_P2;Temp;Humidity;BMP_temperature;BMP_pressure;BME280_temperature;BME280_humidity;BME280_pressure;Samples;Min_cycle;Max_cycle;Signal;HPM_P1;HPM_P2
2022/11/21 00:00:28;;;;;;;10.32;5.90;;;3.20;71.40;;;;;;5040433;28;20093;-90
2022/11/21 00:02:57;;;;;;;12.70;5.88;;;1.60;74.20;;;;;;5035059;28;20101;-90
2022/11/21 00:05:23;;;;;;;16.15;6.90;;;1.70;74.00;;;;;;5044345;28;20182;-91
2022/11/21 00:07:48;;;;;;;10.73;6.00;;;3.80;78.20;;;;;;5027738;28;20522;-90
2022/11/21 00:10:14;;;;;;;9.52;5.88;;;1.60;79.00;;;;;;5011478;28;20139;-91
2022/11/21 00:12:40;;;;;;;10.57;5.95;;;1.40;78.40;;;;;;5011523;28;20140;-91
2022/11/21 00:15:06;;;;;;;10.20;5.47;;;3.50;80.70;;;;;;5027627;28;20073;-90
2022/11/21 00:17:32;;;;;;;10.68;5.85;;;1.40;80.10;;;;;;5011555;28;20049;-91
2022/11/21 00:19:58;;;;;;;12.00;6.13;;;1.30;80.40;;;;;;5027289;28;20127;-91
2022/11/21 00:22:24;;;;;;;11.93;6.40;;;3.80;79.80;;;;;;5011467;28;20049;-91
2022/11/21 00:24:49;;;;;;;11.82;5.65;;;4.10;81.00;;;;;;5011803;28;20052;-90
2022/11/21 00:27:15;;;;;;;13.02;6.15;;;3.20;81.80;;;;;;5011545;28;20053;-91
2022/11/21 00:29:41;;;;;;;9.68;5.80;;;3.90;85.00;;;;;;5027678;28;20133;-91
2022/11/21 00:32:06;;;;;;;14.57;6.22;;;3.60;83.40;;;;;;5011576;28;20052;-90
2022/11/21 00:34:32;;;;;;;15.27;6.28;;;1.40;82.30;;;;;;5027882;28;20056;-91
2022/11/21 00:36:58;;;;;;;10.85;5.72;;;1.50;84.20;;;;;;5027220;28;20048;-91
2022/11/21 00:39:23;;;;;;;11.57;6.35;;;3.30;86.30;;;;;;5011248;28;20138;-91
2022/11/21 00:41:49;;;;;;;12.20;6.28;;;2.60;85.90;;;;;;5027348;28;20132;-90
2022/11/21 00:44:15;;;;;;;11.82;5.97;;;1.50;86.00;;;;;;5028202;28;20044;-91
2022/11/21 00:46:40;;;;;;;14.75;6.30;;;4.00;88.70;;;;;;5027991;28;20447;-91
2022/11/21 00:49:06;;;;;;;12.60;5.97;;;1.30;87.30;;;;;;5011269;28;20045;-91
2022/11/21 00:51:32;;;;;;;12.40;5.50;;;1.50;95.90;;;;;;5011091;28;20102;-91
2022/11/21 00:53:57;;;;;;;14.73;6.38;;;1.10;96.80;;;;;;5026664;28;20044;-90
2022/11/21 00:56:23;;;;;;;14.98;6.40;;;1.20;97.90;;;;;;5011202;28;20045;-90
2022/11/21 00:58:49;;;;;;;11.48;6.00;;;1.20;96.30;;;;;;5011054;28;20045;-91
2022/11/21 01:01:15;;;;;;;13.23;6.13;;;3.60;94.30;;;;;;5010912;28;20045;-91
2022/11/21 01:03:41;;;;;;;14.23;6.50;;;3.50;94.40;;;;;;5030242;28;20017;-90
2022/11/21 01:06:12;;;;;;;11.70;6.93;;;3.30;94.70;;;;;;5007585;28;20093;-91
2022/11/21 01:08:40;;;;;;;15.20;6.43;;;1.60;93.80;;;;;;5008378;28;20053;-91
2022/11/21 01:11:09;;;;;;;10.57;5.97;;;3.90;94.80;;;;;;5021791;28;20053;-91
2022/11/21 01:13:36;;;;;;;12.90;6.28;;;3.60;95.40;;;;;;5004416;28;20045;-91
2022/11/21 01:16:07;;;;;;;10.65;6.07;;;3.50;95.30;;;;;;5021148;28;20053;-90
2022/11/21 01:18:34;;;;;;;10.07;5.65;;;1.20;94.90;;;;;;5004224;28;20045;-91
2022/11/21 01:21:06;;;;;;;19.92;6.40;;;1.30;95.40;;;;;;5020863;28;20547;-91
2022/11/21 01:23:33;;;;;;;9.05;5.57;;;1.30;95.50;;;;;;5004112;28;20477;-91
2022/11/21 01:26:08;;;;;;;8.38;5.47;;;4.10;96.60;;;;;;5003758;28;20052;-90
2022/11/21 01:28:34;;;;;;;13.85;6.03;;;1.10;95.30;;;;;;5020511;28;20045;-90
2022/11/21 01:31:11;;;;;;;13.18;6.75;;;3.50;97.30;;;;;;5004029;28;20056;-90
2022/11/21 01:33:38;;;;;;;11.27;6.25;;;2.50;96.20;;;;;;5010955;28;20041;-90
2022/11/21 01:36:14;;;;;;;11.52;6.68;;;1.80;99.90;;;;;;5010965;28;20396;-90
2022/11/21 01:38:45;;;;;;;12.30;6.07;;;0.70;99.90;;;;;;5003538;28;20052;-91
2022/11/21 01:41:13;;;;;;;10.02;5.53;;;0.40;99.90;;;;;;5019815;28;20056;-90
2022/11/21 01:43:39;;;;;;;10.30;5.43;;;;;;;;;;5003325;28;20041;-90
2022/11/21 01:46:08;;;;;;;12.25;6.55;;;;;;;;;;5003311;28;20038;-90
2022/11/21 01:48:46;;;;;;;11.48;5.57;;;0.60;99.90;;;;;;5003806;28;20045;-90
2022/11/21 01:51:19;;;;;;;10.32;5.80;;;1.10;99.90;;;;;;5020003;28;20513;-90
2022/11/21 01:53:51;;;;;;;10.60;6.07;;;0.90;99.90;;;;;;5003546;28;20512;-90
2022/11/21 01:56:17;;;;;;;11.52;5.40;;;0.50;99.90;;;;;;5003404;28;20058;-90
2022/11/21 01:58:44;;;;;;;9.50;5.50;;;1.90;99.90;;;;;;5019099;28;20532;-89
2022/11/21 02:01:10;;;;;;;9.57;5.53;;;3.00;99.90;;;;;;5019128;28;20046;-90
2022/11/21 02:03:37;;;;;;;12.32;6.45;;;2.80;99.90;;;;;;5019623;28;20098;-90
2022/11/21 02:06:06;;;;;;;12.52;5.93;;;3.60;99.90;;;;;;5044153;28;20037;-89
2022/11/21 02:08:31;;;;;;;9.20;5.30;;;2.50;99.90;;;;;;5028926;28;20065;-89
2022/11/21 02:11:29;;;;;;;10.73;5.57;;;2.40;99.90;;;;;;5006815;28;20385;-89
2022/11/21 02:13:55;;;;;;;13.90;5.72;;;0.30;99.90;;;;;;5039125;28;20127;-89
2022/11/21 02:16:22;;;;;;;9.20;5.60;;;2.30;99.90;;;;;;5038813;28;20476;-89
2022/11/21 02:18:48;;;;;;;9.85;6.03;;;2.10;99.90;;;;;;5006018;28;20099;-89
2022/11/21 02:21:30;;;;;;;11.50;6.00;;;2.10;99.90;;;;;;5038842;28;20061;-89
2022/11/21 02:24:39;;;;;;;12.88;6.43;;;0.10;99.90;;;;;;5038300;28;20103;-89
2022/11/21 02:27:04;;;;;;;10.25;6.13;;;1.60;99.90;;;;;;4977869;28;20050;-89
2022/11/21 02:29:31;;;;;;;16.83;6.97;;;1.90;99.90;;;;;;5028881;28;20053;-89
2022/11/21 02:32:04;;;;;;;12.48;6.18;;;3.00;99.90;;;;;;5022287;28;20053;-89
2022/11/21 02:34:30;;;;;;;13.95;7.13;;;-0.20;99.90;;;;;;5038479;28;20045;-90
2022/11/21 02:36:56;;;;;;;18.42;6.82;;;-0.30;99.90;;;;;;5022104;28;20456;-89
2022/11/21 02:39:28;;;;;;;9.45;5.85;;;-0.50;99.90;;;;;;5022014;28;20106;-90
2022/11/21 02:42:01;;;;;;;8.73;5.43;;;0.40;99.90;;;;;;5021685;28;20056;-89
2022/11/21 02:44:37;;;;;;;12.43;6.80;;;-1.10;99.90;;;;;;5038215;28;20049;-90
2022/11/21 02:47:03;;;;;;;10.20;5.53;;;0.80;99.90;;;;;;5021487;28;20045;-90
2022/11/21 02:49:56;;;;;;;10.25;5.95;;;-0.20;99.90;;;;;;5021683;28;20494;-90
2022/11/21 02:52:21;;;;;;;10.95;6.28;;;0.40;99.90;;;;;;5038118;28;20048;-90
2022/11/21 02:54:47;;;;;;;7.97;5.43;;;-0.70;99.90;;;;;;5021702;28;20041;-89
2022/11/21 02:57:13;;;;;;;10.10;5.60;;;0.00;99.90;;;;;;5021252;28;20061;-90
2022/11/21 02:59:38;;;;;;;10.25;5.22;;;-0.50;99.90;;;;;;5021138;28;20048;-90
2022/11/21 03:02:04;;;;;;;12.30;7.07;;;-0.40;99.90;;;;;;5021772;28;20132;-90
2022/11/21 03:04:30;;;;;;;14.52;6.57;;;-0.70;99.90;;;;;;5021231;28;20052;-89
2022/11/21 03:06:56;;;;;;;9.80;5.95;;;-0.70;99.90;;;;;;5021374;28;20057;-89
2022/11/21 03:09:21;;;;;;;11.60;6.38;;;0.00;99.90;;;;;;5019289;28;20068;-90
2022/11/21 03:11:47;;;;;;;13.82;7.15;;;-0.40;99.90;;;;;;5009520;28;20045;-90
2022/11/21 03:14:13;;;;;;;9.00;5.70;;;-0.90;99.90;;;;;;5021717;28;20053;-90
2022/11/21 03:16:39;;;;;;;13.18;6.57;;;-0.90;99.90;;;;;;5005700;28;20401;-90
2022/11/21 03:19:04;;;;;;;10.75;6.70;;;-0.40;99.90;;;;;;5021461;28;20037;-89
2022/11/21 03:21:30;;;;;;;10.55;6.57;;;-0.60;99.90;;;;;;5039919;28;20075;-89
2022/11/21 03:23:56;;;;;;;10.02;5.53;;;-0.80;99.90;;;;;;4990983;28;20551;-89
2022/11/21 03:26:21;;;;;;;11.55;5.88;;;-0.80;99.90;;;;;;5005474;28;20032;-90
2022/11/21 03:28:47;;;;;;;13.70;5.93;;;-0.90;99.90;;;;;;5021886;28;20472;-89
2022/11/21 03:31:13;;;;;;;11.13;5.93;;;-0.30;99.90;;;;;;5007547;28;20049;-90
2022/11/21 03:33:39;;;;;;;14.63;6.45;;;-0.60;99.90;;;;;;5039502;28;20057;-90
2022/11/21 03:36:07;;;;;;;13.23;6.60;;;-1.00;99.90;;;;;;5037392;28;20043;-90
2022/11/21 03:38:33;;;;;;;12.65;6.20;;;-0.60;99.90;;;;;;5020718;28;20057;-90
2022/11/21 03:41:04;;;;;;;14.23;6.82;;;-0.60;99.90;;;;;;5020978;28;20110;-90
2022/11/21 03:43:30;;;;;;;10.52;6.97;;;-0.70;99.90;;;;;;5021364;28;20044;-89
2022/11/21 03:45:56;;;;;;;14.13;6.60;;;-0.90;99.90;;;;;;5020625;28;20396;-89
2022/11/21 03:48:21;;;;;;;12.10;5.97;;;-0.90;99.90;;;;;;5021039;28;20041;-90
2022/11/21 03:50:47;;;;;;;14.20;7.07;;;-0.50;99.90;;;;;;5037043;28;20048;-89
2022/11/21 03:53:13;;;;;;;11.80;5.72;;;-0.50;99.90;;;;;;5004888;28;20126;-90
2022/11/21 03:55:39;;;;;;;8.88;6.10;;;;;;;;;;5004461;28;20378;-90
2022/11/21 03:58:04;;;;;;;10.05;6.25;;;-0.80;99.90;;;;;;5004817;28;20080;-89
2022/11/21 04:00:30;;;;;;;11.43;6.13;;;-0.60;99.90;;;;;;5021253;28;20055;-89
2022/11/21 04:02:56;;;;;;;13.32;6.15;;;-0.90;99.90;;;;;;5004659;28;20067;-90
2022/11/21 04:05:22;;;;;;;14.18;6.72;;;-0.70;99.90;;;;;;5004145;28;20037;-90
2022/11/21 04:07:47;;;;;;;10.10;6.07;;;1.20;99.90;;;;;;5019976;28;20057;-90
2022/11/21 04:10:13;;;;;;;10.30;6.43;;;1.30;99.90;;;;;;5006618;28;20045;-89
2022/11/21 04:12:39;;;;;;;14.15;6.40;;;-1.00;99.90;;;;;;5035659;28;20049;-89
2022/11/21 04:15:05;;;;;;;11.90;6.30;;;0.90;99.90;;;;;;5004572;28;20057;-90
2022/11/21 04:17:31;;;;;;;13.40;6.47;;;-0.90;99.90;;;;;;5020813;28;20060;-89
2022/11/21 04:19:57;;;;;;;17.05;7.50;;;0.50;99.90;;;;;;5004061;28;20037;-90
2022/11/21 04:22:22;;;;;;;11.35;6.10;;;-0.90;99.90;;;;;;5036538;28;20134;-89
2022/11/21 04:24:48;;;;;;;13.95;6.45;;;1.20;99.90;;;;;;5004213;28;20056;-90
2022/11/21 04:27:14;;;;;;;16.15;7.68;;;0.90;99.90;;;;;;5019881;28;20053;-89
2022/11/21 04:29:39;;;;;;;12.25;5.78;;;0.80;99.90;;;;;;5037026;28;20049;-89
2022/11/21 04:32:05;;;;;;;16.33;6.43;;;0.90;99.90;;;;;;5020347;28;20084;-90
2022/11/21 04:34:31;;;;;;;11.50;6.40;;;0.60;99.90;;;;;;5036688;28;20044;-90
2022/11/21 04:36:56;;;;;;;11.32;6.80;;;1.30;99.90;;;;;;5003971;28;20045;-91
2022/11/21 04:39:22;;;;;;;16.08;7.30;;;1.10;99.90;;;;;;5003557;28;20055;-90
2022/11/21 04:41:48;;;;;;;9.75;5.47;;;0.90;99.90;;;;;;5003457;28;20122;-91
2022/11/21 04:44:48;;;;;;;14.88;7.47;;;0.90;99.90;;;;;;5003938;28;20044;-91
2022/11/21 04:47:17;;;;;;;12.38;7.28;;;-0.70;99.90;;;;;;5046152;22;20045;-75
2022/11/21 04:53:36;;;;;;;8.90;5.50;;;-1.00;99.90;;;;;;4872370;26;20052;-65
2022/11/21 04:56:05;;;;;;;15.63;7.50;;;-1.00;99.90;;;;;;5038679;28;20041;-65
2022/11/21 04:58:31;;;;;;;19.17;8.40;;;-0.50;99.90;;;;;;5056272;28;20119;-66
2022/11/21 05:00:57;;;;;;;10.35;6.20;;;-1.00;99.90;;;;;;5056363;28;20451;-65
2022/11/21 05:03:22;;;;;;;13.75;7.70;;;-1.00;99.90;;;;;;5038544;28;20538;-65
2022/11/21 05:05:48;;;;;;;15.07;7.78;;;-1.00;99.90;;;;;;5056352;28;20037;-65
2022/11/21 05:08:14;;;;;;;16.27;6.93;;;-1.00;99.90;;;;;;5056344;28;20080;-65
2022/11/21 05:13:24;;;;;;;15.15;7.07;;;-1.00;99.90;;;;;;5038351;28;20399;-66
2022/11/21 05:15:56;;;;;;;14.77;7.00;;;-1.00;99.90;;;;;;5056202;28;20037;-65
2022/11/21 05:18:21;;;;;;;12.23;6.38;;;-1.10;99.90;;;;;;5056137;28;20036;-65
2022/11/21 05:20:47;;;;;;;15.68;7.68;;;-1.10;99.90;;;;;;5055809;28;20186;-65
2022/11/21 05:23:13;;;;;;;12.88;6.70;;;-1.10;99.90;;;;;;5056034;28;20045;-65
2022/11/21 05:25:39;;;;;;;12.10;6.63;;;-1.10;99.90;;;;;;5055949;28;20116;-65
2022/11/21 05:28:07;;;;;;;15.52;7.95;;;-1.20;99.90;;;;;;5037817;28;20040;-65
2022/11/21 05:30:33;;;;;;;10.50;6.22;;;-1.20;99.90;;;;;;5055966;28;20391;-65
2022/11/21 05:32:59;;;;;;;13.70;6.55;;;-1.20;99.90;;;;;;5055686;28;20039;-65
2022/11/21 05:35:24;;;;;;;12.05;7.90;;;-1.20;99.90;;;;;;5055858;28;20077;-66
2022/11/21 05:37:57;;;;;;;9.32;6.10;;;-1.20;99.90;;;;;;5055751;28;20041;-65
2022/11/21 05:40:24;;;;;;;12.48;7.15;;;-1.20;99.90;;;;;;5055783;28;20159;-65
2022/11/21 05:45:34;;;;;;;14.38;7.57;;;-1.20;99.90;;;;;;5055521;28;20434;-66
2022/11/21 05:48:00;;;;;;;15.15;6.72;;;-1.20;99.90;;;;;;5037543;28;20052;-66
2022/11/21 05:50:25;;;;;;;12.70;5.57;;;-1.20;99.90;;;;;;5055213;28;20380;-65
2022/11/21 05:52:51;;;;;;;16.20;7.63;;;-1.20;99.90;;;;;;5020741;28;20045;-65
2022/11/21 05:55:17;;;;;;;10.10;6.72;;;-1.20;99.90;;;;;;5055373;28;20493;-65
2022/11/21 05:57:42;;;;;;;16.70;8.43;;;-0.40;99.90;;;;;;5037171;28;20047;-65
2022/11/21 06:00:09;;;;;;;15.73;6.43;;;-1.10;99.90;;;;;;5055331;28;20040;-65
2022/11/21 06:05:19;;;;;;;12.15;7.15;;;-1.00;99.90;;;;;;5055408;28;20068;-65
2022/11/21 06:07:44;;;;;;;15.57;7.47;;;-1.00;99.90;;;;;;5054997;28;20037;-65
2022/11/21 06:10:10;;;;;;;13.77;8.27;;;-0.90;99.90;;;;;;5037252;28;20041;-65
2022/11/21 06:12:36;;;;;;;12.93;7.97;;;0.00;99.90;;;;;;5054871;28;20151;-66
2022/11/21 06:15:02;;;;;;;15.63;7.35;;;-0.90;99.90;;;;;;5055048;28;20139;-65
2022/11/21 06:17:27;;;;;;;14.48;7.47;;;-0.90;99.90;;;;;;5055050;28;20041;-65
2022/11/21 06:19:53;;;;;;;14.27;8.02;;;-1.00;99.90;;;;;;5037129;28;20055;-65
2022/11/21 06:22:19;;;;;;;13.02;7.90;;;-1.00;99.90;;;;;;5037149;28;20045;-65
2022/11/21 06:24:44;;;;;;;19.77;8.85;;;-1.10;99.90;;;;;;5054924;28;20391;-65
2022/11/21 06:27:10;;;;;;;15.32;6.90;;;-1.10;99.90;;;;;;5054742;28;20048;-65
2022/11/21 06:29:36;;;;;;;10.55;7.03;;;-1.10;99.90;;;;;;5054723;28;20119;-65
2022/11/21 06:32:01;;;;;;;13.52;7.60;;;-1.20;99.90;;;;;;5054413;28;20077;-66
2022/11/21 06:34:27;;;;;;;18.67;8.10;;;-0.60;99.90;;;;;;5054658;28;20087;-65
2022/11/21 06:36:53;;;;;;;21.83;8.02;;;-1.20;99.90;;;;;;5036839;28;20487;-65
2022/11/21 06:39:22;;;;;;;14.52;7.93;;;-1.30;99.90;;;;;;5054622;28;20040;-65
2022/11/21 06:41:49;;;;;;;15.52;8.52;;;-1.30;99.90;;;;;;5054647;28;20113;-64
2022/11/21 06:44:18;;;;;;;12.55;7.78;;;-1.40;99.90;;;;;;5036609;28;20098;-64
2022/11/21 06:46:44;;;;;;;14.52;7.00;;;-0.90;99.90;;;;;;5054483;28;20048;-64
2022/11/21 06:49:10;;;;;;;16.45;8.10;;;-1.50;99.90;;;;;;5054131;28;20041;-65
2022/11/21 06:51:36;;;;;;;18.60;8.00;;;-1.50;99.90;;;;;;5054255;28;20033;-64
2022/11/21 06:54:01;;;;;;;11.60;6.45;;;-1.50;99.90;;;;;;5054379;28;20060;-64
2022/11/21 06:56:29;;;;;;;18.92;8.23;;;-1.60;99.90;;;;;;5054311;28;20037;-65
2022/11/21 06:58:55;;;;;;;14.88;7.22;;;-1.60;99.90;;;;;;5054208;28;20044;-66
2022/11/21 07:01:21;;;;;;;14.10;6.75;;;-1.60;99.90;;;;;;5036074;28;20146;-65
2022/11/21 07:03:47;;;;;;;14.27;6.43;;;-1.60;99.90;;;;;;5054133;28;20495;-65
2022/11/21 07:06:13;;;;;;;13.85;7.85;;;-1.60;99.90;;;;;;5036086;28;20041;-65
2022/11/21 07:08:41;;;;;;;12.98;7.35;;;-1.70;99.90;;;;;;5053216;28;20439;-65
2022/11/21 07:11:10;;;;;;;14.27;7.78;;;-1.70;99.90;;;;;;5053765;28;20025;-65
2022/11/21 07:13:36;;;;;;;12.75;7.88;;;-1.60;99.90;;;;;;5053751;28;20036;-66
2022/11/21 07:16:04;;;;;;;15.55;7.93;;;-1.60;99.90;;;;;;5053906;28;20037;-65
2022/11/21 07:18:30;;;;;;;30.65;8.43;;;-1.60;99.90;;;;;;5053630;28;20041;-66
2022/11/21 07:21:01;;;;;;;16.73;8.38;;;-1.60;99.90;;;;;;5036065;28;20036;-65
2022/11/21 07:23:27;;;;;;;12.90;7.90;;;-1.70;99.90;;;;;;5019513;28;20497;-66
2022/11/21 07:25:53;;;;;;;19.95;9.32;;;-1.60;99.90;;;;;;5053392;28;20378;-66
2022/11/21 07:28:19;;;;;;;15.45;7.93;;;-1.60;99.90;;;;;;5053754;28;20044;-65
2022/11/21 07:30:45;;;;;;;13.90;7.45;;;-1.60;99.90;;;;;;5053660;28;20112;-66
2022/11/21 07:33:10;;;;;;;14.30;7.28;;;-1.60;99.90;;;;;;5035457;28;20037;-65
2022/11/21 07:35:36;;;;;;;15.00;8.07;;;-1.50;99.90;;;;;;5053636;28;20141;-66
2022/11/21 07:38:03;;;;;;;18.15;8.35;;;-1.50;99.90;;;;;;5053553;28;20041;-66
2022/11/21 07:40:29;;;;;;;16.67;7.88;;;-1.60;99.90;;;;;;5035432;28;20095;-66
2022/11/21 07:43:01;;;;;;;13.85;7.82;;;-1.50;99.90;;;;;;5053551;28;20048;-66
2022/11/21 07:45:26;;;;;;;16.85;8.15;;;-1.50;99.90;;;;;;5052851;28;20045;-66
2022/11/21 07:48:03;;;;;;;15.45;7.75;;;-1.00;99.90;;;;;;5034276;28;20052;-65
2022/11/21 07:50:30;;;;;;;13.55;7.63;;;-1.50;99.90;;;;;;5052026;28;20036;-64
2022/11/21 07:53:03;;;;;;;20.90;7.85;;;-1.50;99.90;;;;;;5051802;28;20122;-64
2022/11/21 07:55:30;;;;;;;16.63;7.43;;;-1.40;99.90;;;;;;5052326;28;20561;-63
2022/11/21 07:58:07;;;;;;;18.15;7.72;;;-1.40;99.90;;;;;;5051973;28;20045;-64
2022/11/21 08:00:35;;;;;;;16.20;8.52;;;-1.40;99.90;;;;;;5052259;28;20053;-65
2022/11/21 08:03:02;;;;;;;20.67;9.45;;;-1.40;99.90;;;;;;5051841;28;20129;-65
2022/11/21 08:05:28;;;;;;;12.45;6.82;;;-1.30;99.90;;;;;;5052180;28;20098;-65
2022/11/21 08:07:53;;;;;;;14.25;7.43;;;-1.30;99.90;;;;;;5051692;28;20037;-66
2022/11/21 08:10:19;;;;;;;14.07;8.57;;;-1.30;99.90;;;;;;5050761;28;20041;-65
2022/11/21 08:12:45;;;;;;;18.45;7.47;;;-1.30;99.90;;;;;;5052170;28;20063;-65
2022/11/21 08:15:11;;;;;;;14.23;7.05;;;-1.20;99.90;;;;;;5051613;28;20110;-65
2022/11/21 08:17:37;;;;;;;16.45;7.60;;;-1.20;99.90;;;;;;5052122;28;20037;-65
2022/11/21 08:20:05;;;;;;;16.50;7.50;;;-1.10;99.90;;;;;;5052309;28;20040;-65
2022/11/21 08:22:30;;;;;;;13.43;7.07;;;-1.10;99.90;;;;;;5055703;28;20049;-65
2022/11/21 08:24:56;;;;;;;15.90;8.38;;;-1.00;99.90;;;;;;5055918;28;20041;-66
2022/11/21 08:27:23;;;;;;;17.63;7.85;;;-0.90;99.90;;;;;;5021436;28;20068;-65
2022/11/21 08:29:49;;;;;;;16.85;9.30;;;-0.80;99.90;;;;;;5055998;28;20124;-65
2022/11/21 08:32:15;;;;;;;16.90;8.15;;;-0.80;99.90;;;;;;5055972;28;20072;-65
2022/11/21 08:34:40;;;;;;;14.48;8.50;;;-0.80;99.90;;;;;;5055943;28;20080;-66
2022/11/21 08:37:06;;;;;;;12.82;8.27;;;-0.80;99.90;;;;;;5055869;28;20049;-65
2022/11/21 08:39:32;;;;;;;14.38;8.75;;;-0.70;99.90;;;;;;5038024;28;20045;-65
2022/11/21 08:42:04;;;;;;;15.23;7.93;;;-0.60;99.90;;;;;;5055701;28;20120;-65
2022/11/21 08:44:31;;;;;;;19.80;9.55;;;-0.50;99.90;;;;;;5055908;28;20398;-65
2022/11/21 08:46:57;;;;;;;11.88;7.32;;;-0.10;99.90;;;;;;5037590;28;20045;-65
2022/11/21 08:49:23;;;;;;;14.40;8.25;;;0.40;99.90;;;;;;5055732;28;20068;-65
2022/11/21 08:51:49;;;;;;;17.40;8.30;;;0.00;99.90;;;;;;5055292;28;20110;-65
2022/11/21 08:54:23;;;;;;;17.17;8.88;;;-0.20;99.90;;;;;;5055310;28;20037;-65
2022/11/21 08:56:49;;;;;;;14.75;8.45;;;-0.10;99.90;;;;;;5055702;28;20402;-65
2022/11/21 08:59:16;;;;;;;13.85;7.78;;;0.10;99.90;;;;;;5055627;28;20124;-65
2022/11/21 09:01:42;;;;;;;14.63;7.53;;;0.80;99.90;;;;;;5055482;28;20052;-65
2022/11/21 09:04:08;;;;;;;19.40;8.38;;;0.30;99.90;;;;;;5055533;28;20545;-65
2022/11/21 09:06:34;;;;;;;17.95;8.48;;;0.40;99.90;;;;;;5055402;28;20037;-66
2022/11/21 09:09:00;;;;;;;18.27;9.30;;;0.40;99.90;;;;;;5055422;28;20041;-65
2022/11/21 09:11:26;;;;;;;13.18;8.13;;;0.50;99.90;;;;;;5055393;28;20561;-65
2022/11/21 09:19:26;;;;;;;18.33;8.73;;;0.70;99.90;;;;;;5054822;28;20041;-64
2022/11/21 09:21:52;;;;;;;13.75;8.57;;;0.80;99.90;;;;;;5036907;28;20041;-64
2022/11/21 09:24:18;;;;;;;19.98;9.18;;;0.80;99.90;;;;;;5055136;28;20037;-65
2022/11/21 09:26:44;;;;;;;15.35;8.73;;;0.90;99.90;;;;;;5054676;28;20094;-64
2022/11/21 09:29:10;;;;;;;17.48;8.93;;;0.90;99.90;;;;;;5055021;28;20041;-64
2022/11/21 09:31:38;;;;;;;15.25;7.63;;;1.70;99.90;;;;;;5054514;28;20120;-64
2022/11/21 09:34:04;;;;;;;13.00;8.35;;;0.90;99.90;;;;;;5054631;28;20048;-64
2022/11/21 09:36:30;;;;;;;13.50;7.40;;;1.00;99.90;;;;;;5054686;28;20037;-65
2022/11/21 09:38:55;;;;;;;20.48;8.07;;;1.00;99.90;;;;;;5054856;28;20116;-65
2022/11/21 09:41:52;;;;;;;20.92;8.70;;;1.10;99.90;;;;;;5054901;28;20487;-64
2022/11/21 09:44:59;;;;;;;15.77;7.70;;;1.10;99.90;;;;;;5037002;28;20128;-65
2022/11/21 09:47:46;;;;;;;14.77;8.43;;;1.10;99.90;;;;;;5038261;28;20068;-64
2022/11/21 09:50:12;;;;;;;14.40;8.07;;;1.20;99.90;;;;;;5054314;28;20074;-65
2022/11/21 09:52:46;;;;;;;14.40;8.07;;;1.30;99.90;;;;;;5054443;28;20076;-65
2022/11/21 09:55:34;;;;;;;12.23;6.70;;;1.40;99.90;;;;;;5054571;28;20128;-65
2022/11/21 09:58:03;;;;;;;17.67;8.50;;;1.40;99.90;;;;;;5054450;28;20115;-64
2022/11/21 10:00:30;;;;;;;19.60;8.18;;;1.30;99.90;;;;;;5054222;28;20068;-65
2022/11/21 10:02:56;;;;;;;15.52;8.07;;;1.40;99.90;;;;;;5036644;28;20433;-65
2022/11/21 10:06:07;;;;;;;15.13;7.72;;;1.50;99.90;;;;;;5054343;28;20056;-65
2022/11/21 10:08:48;;;;;;;11.65;7.05;;;1.50;99.90;;;;;;5046581;28;20068;-65
2022/11/21 10:12:35;;;;;;;16.40;8.60;;;1.60;99.90;;;;;;5053963;28;20051;-65
2022/11/21 10:14:40;;;;;;;11.73;6.88;;;1.70;99.90;;;;;;5053786;28;20041;-65
2022/11/21 10:17:27;;;;;;;12.50;7.53;;;1.70;99.90;;;;;;5053843;28;20048;-66
2022/11/21 10:20:19;;;;;;;16.33;8.95;;;1.70;99.90;;;;;;5053745;28;20124;-65
2022/11/21 10:23:18;;;;;;;15.48;7.72;;;1.70;99.90;;;;;;5030651;28;20061;-65
2022/11/21 10:25:56;;;;;;;15.20;7.72;;;1.70;99.90;;;;;;5053980;28;20052;-65
2022/11/21 10:29:00;;;;;;;19.83;8.30;;;1.70;99.90;;;;;;5053941;28;20072;-65
2022/11/21 10:31:30;;;;;;;14.02;8.35;;;1.70;99.90;;;;;;5054020;28;20420;-65
2022/11/21 10:33:57;;;;;;;16.15;7.93;;;1.70;99.90;;;;;;5053801;28;20040;-65
2022/11/21 10:36:46;;;;;;;12.82;7.25;;;1.70;99.90;;;;;;5035713;28;20056;-65
2022/11/21 10:39:24;;;;;;;14.38;7.68;;;1.80;99.90;;;;;;5053472;28;20033;-65
2022/11/21 10:42:22;;;;;;;14.18;8.45;;;1.80;99.90;;;;;;5053698;28;20053;-65
2022/11/21 10:47:36;;;;;;;13.70;7.57;;;2.00;99.90;;;;;;5053609;28;20049;-65
2022/11/21 10:50:08;;;;;;;15.20;6.65;;;2.00;99.90;;;;;;5053575;28;20480;-65
2022/11/21 10:52:41;;;;;;;10.93;6.85;;;2.00;99.90;;;;;;5053245;28;20053;-65
2022/11/21 10:55:10;;;;;;;14.20;7.47;;;2.10;99.90;;;;;;5053078;28;20057;-65
2022/11/21 10:57:46;;;;;;;16.40;6.95;;;2.10;99.90;;;;;;5035173;28;20044;-65
2022/11/21 11:00:11;;;;;;;16.98;7.63;;;2.20;99.90;;;;;;5053238;28;20132;-65
2022/11/21 11:02:55;;;;;;;16.08;8.95;;;2.20;99.90;;;;;;5053256;28;20124;-64
2022/11/21 11:05:28;;;;;;;10.40;6.20;;;2.30;99.90;;;;;;5035533;28;20558;-65
2022/11/21 11:08:03;;;;;;;14.60;7.85;;;2.40;99.90;;;;;;5035277;28;20048;-65
2022/11/21 11:10:30;;;;;;;12.48;7.70;;;2.40;99.90;;;;;;5018642;28;20075;-65
2022/11/21 11:16:17;;;;;;;16.15;7.43;;;2.60;99.90;;;;;;5052990;28;20057;-63
2022/11/21 11:19:07;;;;;;;14.65;7.82;;;3.10;99.90;;;;;;5010751;28;20125;-64
2022/11/21 11:21:43;;;;;;;14.43;5.53;;;2.90;99.90;;;;;;5033933;28;20061;-63
2022/11/21 11:24:08;;;;;;;12.82;8.20;;;3.90;99.90;;;;;;5052544;28;20087;-63
2022/11/21 11:26:50;;;;;;;15.77;7.70;;;3.20;99.90;;;;;;5052721;28;20114;-66
2022/11/21 11:29:20;;;;;;;12.38;6.57;;;3.20;99.90;;;;;;5052537;28;20081;-67
2022/11/21 11:31:57;;;;;;;13.93;6.78;;;3.30;99.90;;;;;;5052764;28;20075;-64
2022/11/21 11:34:34;;;;;;;15.25;7.45;;;3.30;99.90;;;;;;5052410;28;20091;-64
2022/11/21 11:37:30;;;;;;;15.40;6.60;;;3.30;99.90;;;;;;5052755;28;20040;-64
2022/11/21 11:40:16;;;;;;;11.95;6.88;;;3.40;99.90;;;;;;5052707;28;20037;-63
2022/11/21 11:49:08;;;;;;;17.48;7.60;;;3.20;99.90;;;;;;5052509;28;20450;-64
2022/11/21 11:51:41;;;;;;;13.27;7.32;;;3.10;99.90;;;;;;5052541;28;20037;-64
2022/11/21 11:54:40;;;;;;;15.95;7.55;;;3.60;99.90;;;;;;5052015;28;20530;-67
2022/11/21 11:57:08;;;;;;;17.85;8.02;;;3.20;99.90;;;;;;5030702;28;20045;-66
2022/11/21 11:59:40;;;;;;;13.82;7.88;;;3.20;99.90;;;;;;5052133;28;20080;-65
2022/11/21 12:02:24;;;;;;;19.50;8.60;;;3.70;99.90;;;;;;5052683;28;20802;-67
2022/11/21 12:05:07;;;;;;;12.95;7.57;;;3.20;99.90;;;;;;5052130;28;20094;-66
2022/11/21 12:07:38;;;;;;;16.27;7.45;;;3.30;99.90;;;;;;5052409;28;20049;-66
2022/11/21 12:10:16;;;;;;;18.40;7.93;;;3.30;99.90;;;;;;5052097;28;20044;-66
2022/11/21 12:12:47;;;;;;;16.85;8.32;;;3.30;99.90;;;;;;5051998;28;20048;-64
2022/11/21 12:18:35;;;;;;;13.68;7.25;;;3.40;99.90;;;;;;5052000;28;20048;-65
2022/11/21 12:21:10;;;;;;;15.50;7.80;;;3.40;99.90;;;;;;5051986;28;20616;-65
2022/11/21 12:23:51;;;;;;;15.70;6.80;;;3.30;99.90;;;;;;5052022;28;20045;-65
2022/11/21 12:26:22;;;;;;;15.10;7.85;;;3.20;99.90;;;;;;5051907;28;20044;-65
2022/11/21 12:28:48;;;;;;;14.93;6.43;;;3.30;99.90;;;;;;5034132;28;20175;-65
2022/11/21 12:31:19;;;;;;;17.17;7.63;;;3.20;99.90;;;;;;5034087;28;20124;-65
2022/11/21 12:34:03;;;;;;;12.55;6.50;;;3.20;99.90;;;;;;5052206;28;20041;-65
2022/11/21 12:36:55;;;;;;;11.98;5.82;;;3.30;99.90;;;;;;5034082;28;20123;-65
2022/11/21 12:40:05;;;;;;;14.15;6.78;;;3.20;99.90;;;;;;5051783;28;20048;-65
2022/11/21 12:42:49;;;;;;;14.57;5.80;;;3.20;99.90;;;;;;5014835;28;20062;-65
2022/11/21 12:45:36;;;;;;;11.45;5.72;;;3.30;99.90;;;;;;5034088;28;20051;-65
2022/11/21 12:54:29;;;;;;;13.18;6.20;;;3.30;99.90;;;;;;5051458;28;20507;-65
2022/11/21 12:57:13;;;;;;;12.93;5.18;;;3.30;99.90;;;;;;5033822;28;20110;-65
2022/11/21 12:59:45;;;;;;;11.13;5.72;;;3.30;99.90;;;;;;5034029;28;20563;-65
2022/11/21 13:02:38;;;;;;;9.70;5.20;;;3.30;99.90;;;;;;5033948;28;20053;-65
2022/11/21 13:05:09;;;;;;;8.73;5.15;;;3.30;99.90;;;;;;5051532;28;20048;-65
2022/11/21 13:07:39;;;;;;;9.52;5.22;;;3.60;99.90;;;;;;5052956;28;20553;-65
2022/11/21 13:10:12;;;;;;;9.30;5.07;;;3.60;99.90;;;;;;5055442;28;20463;-64
2022/11/21 13:12:47;;;;;;;11.45;5.63;;;3.30;99.90;;;;;;5055367;28;20443;-65
2022/11/21 13:15:21;;;;;;;13.90;5.38;;;3.30;99.90;;;;;;5054973;28;20047;-65
2022/11/21 13:18:15;;;;;;;7.63;4.50;;;3.30;99.90;;;;;;5055000;28;20043;-65
2022/11/21 13:20:47;;;;;;;10.82;5.32;;;3.70;99.90;;;;;;5055197;28;20528;-64
2022/11/21 13:23:34;;;;;;;10.68;5.47;;;3.40;99.90;;;;;;5055179;28;20395;-64
2022/11/21 13:26:00;;;;;;;10.82;5.32;;;3.40;99.90;;;;;;5054741;28;20072;-65
2022/11/21 13:28:31;;;;;;;12.88;5.97;;;3.40;99.90;;;;;;5054789;28;20045;-65
2022/11/21 13:31:01;;;;;;;8.25;4.68;;;3.50;99.90;;;;;;5055020;28;20373;-65
2022/11/21 13:33:33;;;;;;;12.33;6.13;;;3.50;99.90;;;;;;5055100;28;20498;-65
2022/11/21 13:36:08;;;;;;;10.68;5.13;;;3.90;99.90;;;;;;5054617;28;20106;-65
2022/11/21 13:38:49;;;;;;;10.90;5.20;;;3.50;99.90;;;;;;5054642;28;20041;-65
2022/11/21 13:44:29;;;;;;;9.07;5.18;;;3.60;99.90;;;;;;5054466;28;20146;-65